createdAt,value
2022-11-15T00:00:50.873Z,8.20
2022-11-15T00:01:50.879Z,8.23
2022-11-15T00:02:50.866Z,8.26
2022-11-15T00:03:50.887Z,8.26
2022-11-15T00:04:50.854Z,8.24
2022-11-15T00:05:50.852Z,8.26
2022-11-15T00:06:50.900Z,8.20
2022-11-15T00:07:58.069Z,8.18
2022-11-15T00:08:50.841Z,8.27
2022-11-15T00:09:50.812Z,8.24
2022-11-15T00:10:50.806Z,8.26
2022-11-15T00:11:50.808Z,8.27
2022-11-15T00:12:50.852Z,8.26
2022-11-15T00:13:50.802Z,8.23
2022-11-15T00:14:50.790Z,8.24
2022-11-15T00:15:50.780Z,8.15
2022-11-15T00:16:50.772Z,8.23
2022-11-15T00:17:50.774Z,8.15
2022-11-15T00:18:51.142Z,8.13
2022-11-15T00:19:50.765Z,8.12
2022-11-15T00:20:50.742Z,8.13
2022-11-15T00:21:50.741Z,8.18
2022-11-15T00:22:50.739Z,8.15
2022-11-15T00:23:50.758Z,8.12
2022-11-15T00:24:50.715Z,8.13
2022-11-15T00:25:50.718Z,8.16
2022-11-15T00:26:50.705Z,8.12
2022-11-15T00:27:50.696Z,8.12
2022-11-15T00:28:50.686Z,8.16
2022-11-15T00:29:50.688Z,8.05
2022-11-15T00:30:50.697Z,8.06
2022-11-15T00:31:50.690Z,8.03
2022-11-15T00:32:50.688Z,8.03
2022-11-15T00:33:50.672Z,8.05
2022-11-15T00:34:50.645Z,8.03
2022-11-15T00:35:50.660Z,8.05
2022-11-15T00:36:50.643Z,8.06
2022-11-15T00:37:50.646Z,8.00
2022-11-15T00:38:50.627Z,8.05
2022-11-15T00:39:50.619Z,8.00
2022-11-15T00:40:50.619Z,7.93
2022-11-15T00:41:50.640Z,7.98
2022-11-15T00:42:50.605Z,7.93
2022-11-15T00:43:50.593Z,7.94
2022-11-15T00:44:50.584Z,7.90
2022-11-15T00:45:50.575Z,7.97
2022-11-15T00:46:50.592Z,7.87
2022-11-15T00:47:50.569Z,7.90
2022-11-15T00:48:50.572Z,7.85
2022-11-15T00:49:50.552Z,7.82
2022-11-15T00:50:50.568Z,7.88
2022-11-15T00:51:50.547Z,7.85
2022-11-15T00:52:50.552Z,7.85
2022-11-15T00:53:50.541Z,7.93
2022-11-15T00:54:50.517Z,7.77
2022-11-15T00:55:50.522Z,7.87
2022-11-15T00:56:50.537Z,7.75
2022-11-15T00:57:50.502Z,7.73
2022-11-15T00:58:50.487Z,7.73
2022-11-15T00:59:50.489Z,7.69
2022-11-15T01:00:50.521Z,7.72
2022-11-15T01:01:50.481Z,7.66
2022-11-15T01:02:50.469Z,7.61
2022-11-15T01:03:50.461Z,7.58
2022-11-15T01:04:50.462Z,7.61
2022-11-15T01:05:50.445Z,7.63
2022-11-15T01:06:50.480Z,7.63
2022-11-15T01:07:50.439Z,7.60
2022-11-15T01:08:50.448Z,7.66
2022-11-15T01:09:50.413Z,7.58
2022-11-15T01:10:50.422Z,7.63
2022-11-15T01:11:50.424Z,7.61
2022-11-15T01:12:50.410Z,7.61
2022-11-15T01:13:50.386Z,7.66
2022-11-15T01:14:50.378Z,7.60
2022-11-15T01:15:50.383Z,7.61
2022-11-15T01:16:50.379Z,7.69
2022-11-15T01:17:50.417Z,7.70
2022-11-15T01:18:50.371Z,7.63
2022-11-15T01:19:50.353Z,7.61
2022-11-15T01:20:50.340Z,7.67
2022-11-15T01:21:50.357Z,7.70
2022-11-15T01:22:50.333Z,7.60
2022-11-15T01:23:50.354Z,7.61
2022-11-15T01:24:50.335Z,7.60
2022-11-15T01:25:50.322Z,7.67
2022-11-15T01:26:50.319Z,7.63
2022-11-15T01:27:50.301Z,7.69
2022-11-15T01:28:50.326Z,7.66
2022-11-15T01:29:50.279Z,7.63
2022-11-15T01:30:50.287Z,7.69
2022-11-15T01:31:50.266Z,7.63
2022-11-15T01:32:50.264Z,7.73
2022-11-15T01:33:50.267Z,7.70
2022-11-15T01:34:50.268Z,7.69
2022-11-15T01:35:50.238Z,7.69
2022-11-15T01:36:50.247Z,7.57
2022-11-15T01:37:50.244Z,7.69
2022-11-15T01:38:50.232Z,7.69
2022-11-15T01:39:50.228Z,7.66
2022-11-15T01:40:50.209Z,7.57
2022-11-15T01:41:50.208Z,7.61
2022-11-15T01:42:50.235Z,7.63
2022-11-15T01:43:50.230Z,7.66
2022-11-15T01:44:50.195Z,7.56
2022-11-15T01:45:50.191Z,7.60
2022-11-15T01:46:50.174Z,7.54
2022-11-15T01:47:50.163Z,7.50
2022-11-15T01:48:50.186Z,7.54
2022-11-15T01:49:50.157Z,7.57
2022-11-15T01:50:50.149Z,7.51
2022-11-15T01:51:50.137Z,7.51
2022-11-15T01:52:50.141Z,7.50
2022-11-15T01:53:50.118Z,7.54
2022-11-15T01:54:50.124Z,7.50
2022-11-15T01:55:50.121Z,7.47
2022-11-15T01:56:50.093Z,7.54
2022-11-15T01:57:50.112Z,7.47
2022-11-15T01:58:50.083Z,7.57
2022-11-15T01:59:50.076Z,7.48
2022-11-15T02:00:50.151Z,7.50
2022-11-15T02:01:50.069Z,7.51
2022-11-15T02:02:50.062Z,7.51
2022-11-15T02:03:50.074Z,7.54
2022-11-15T02:04:50.039Z,7.54
2022-11-15T02:05:50.033Z,7.50
2022-11-15T02:06:50.102Z,7.42
2022-11-15T02:07:50.022Z,7.40
2022-11-15T02:08:50.011Z,7.43
2022-11-15T02:09:50.019Z,7.45
2022-11-15T02:10:50.025Z,7.56
2022-11-15T02:11:49.997Z,7.42
2022-11-15T02:12:49.982Z,7.48
2022-11-15T02:13:49.979Z,7.48
2022-11-15T02:14:49.975Z,7.45
2022-11-15T02:15:49.979Z,7.50
2022-11-15T02:16:49.960Z,7.45
2022-11-15T02:17:49.963Z,7.45
2022-11-15T02:18:49.947Z,7.40
2022-11-15T02:19:49.931Z,7.40
2022-11-15T02:20:49.927Z,7.39
2022-11-15T02:21:49.927Z,7.42
2022-11-15T02:22:49.921Z,7.43
2022-11-15T02:23:49.928Z,7.40
2022-11-15T02:24:49.924Z,7.47
2022-11-15T02:25:49.902Z,7.45
2022-11-15T02:26:49.886Z,7.45
2022-11-15T02:27:49.879Z,7.39
2022-11-15T02:28:49.870Z,7.40
2022-11-15T02:29:49.885Z,7.42
2022-11-15T02:30:49.876Z,7.33
2022-11-15T02:31:49.866Z,7.42
2022-11-15T02:32:49.850Z,7.45
2022-11-15T02:33:49.856Z,7.40
2022-11-15T02:34:49.832Z,7.45
2022-11-15T02:35:49.825Z,7.43
2022-11-15T02:36:49.812Z,7.40
2022-11-15T02:37:49.814Z,7.48
2022-11-15T02:38:49.814Z,7.42
2022-11-15T02:39:49.796Z,7.39
2022-11-15T02:40:49.793Z,7.40
2022-11-15T02:41:49.796Z,7.40
2022-11-15T02:42:49.779Z,7.39
2022-11-15T02:43:49.780Z,7.56
2022-11-15T02:44:49.761Z,7.53
2022-11-15T02:45:49.774Z,7.45
2022-11-15T02:46:49.766Z,7.43
2022-11-15T02:47:49.752Z,7.45
2022-11-15T02:48:49.730Z,7.39
2022-11-15T02:49:49.725Z,7.48
2022-11-15T02:50:49.719Z,7.48
2022-11-15T02:51:49.719Z,7.40
2022-11-15T02:52:49.710Z,7.48
2022-11-15T02:53:49.712Z,7.50
2022-11-15T02:54:49.691Z,7.45
2022-11-15T02:55:49.688Z,7.47
2022-11-15T02:56:49.675Z,7.48
2022-11-15T02:57:49.666Z,7.45
2022-11-15T02:58:49.662Z,7.40
2022-11-15T02:59:49.658Z,7.39
2022-11-15T03:00:49.746Z,7.43
2022-11-15T03:01:49.684Z,7.42
2022-11-15T03:02:49.672Z,7.51
2022-11-15T03:03:49.645Z,7.38
2022-11-15T03:04:49.636Z,7.33
2022-11-15T03:05:49.612Z,7.42
2022-11-15T03:06:49.645Z,7.40
2022-11-15T03:07:49.617Z,7.36
2022-11-15T03:08:49.611Z,7.40
2022-11-15T03:09:49.592Z,7.40
2022-11-15T03:10:49.581Z,7.47
2022-11-15T03:11:49.577Z,7.31
2022-11-15T03:12:49.566Z,7.43
2022-11-15T03:13:49.566Z,7.43
2022-11-15T03:14:49.570Z,7.40
2022-11-15T03:15:49.549Z,7.42
2022-11-15T03:16:49.547Z,7.47
2022-11-15T03:17:49.531Z,7.47
2022-11-15T03:18:49.523Z,7.38
2022-11-15T03:19:49.513Z,7.47
2022-11-15T03:20:49.508Z,7.45
2022-11-15T03:21:49.500Z,7.43
2022-11-15T03:22:49.500Z,7.31
2022-11-15T03:23:49.503Z,7.33
2022-11-15T03:24:49.480Z,7.33
2022-11-15T03:25:49.470Z,7.32
2022-11-15T03:26:49.463Z,7.36
2022-11-15T03:27:49.463Z,7.29
2022-11-15T03:28:49.452Z,7.33
2022-11-15T03:29:49.450Z,7.33
2022-11-15T03:30:49.447Z,7.33
2022-11-15T03:31:50.735Z,7.32
2022-11-15T03:32:49.433Z,7.31
2022-11-15T03:33:49.452Z,7.32
2022-11-15T03:34:49.414Z,7.33
2022-11-15T03:35:49.414Z,7.35
2022-11-15T03:36:49.396Z,7.32
2022-11-15T03:37:49.479Z,7.32
2022-11-15T03:38:49.380Z,7.33
2022-11-15T03:39:49.400Z,7.31
2022-11-15T03:40:49.377Z,7.31
2022-11-15T03:41:49.381Z,7.28
2022-11-15T03:42:49.361Z,7.25
2022-11-15T03:43:49.356Z,7.29
2022-11-15T03:44:49.347Z,7.28
2022-11-15T03:45:49.336Z,7.25
2022-11-15T03:46:49.334Z,7.31
2022-11-15T03:47:49.323Z,7.35
2022-11-15T03:48:49.315Z,7.18
2022-11-15T03:49:49.310Z,7.17
2022-11-15T03:50:49.324Z,7.24
2022-11-15T03:51:49.302Z,7.31
2022-11-15T03:52:49.290Z,7.35
2022-11-15T03:53:49.284Z,7.20
2022-11-15T03:54:49.283Z,7.21
2022-11-15T03:55:49.273Z,7.28
2022-11-15T03:56:49.253Z,7.35
2022-11-15T03:57:49.267Z,7.17
2022-11-15T03:58:49.263Z,7.28
2022-11-15T03:59:49.237Z,7.29
2022-11-15T04:00:49.322Z,7.24
2022-11-15T04:01:49.219Z,7.21
2022-11-15T04:02:49.226Z,7.21
2022-11-15T04:03:49.213Z,7.20
2022-11-15T04:04:49.206Z,7.24
2022-11-15T04:05:49.202Z,7.15
2022-11-15T04:06:49.238Z,7.28
2022-11-15T04:07:49.189Z,7.24
2022-11-15T04:08:49.180Z,7.21
2022-11-15T04:09:49.163Z,7.18
2022-11-15T04:10:49.185Z,7.20
2022-11-15T04:11:49.152Z,7.24
2022-11-15T04:12:49.145Z,7.32
2022-11-15T04:13:49.135Z,7.18
2022-11-15T04:14:49.150Z,7.15
2022-11-15T04:15:49.142Z,7.21
2022-11-15T04:16:49.120Z,7.24
2022-11-15T04:17:49.113Z,7.18
2022-11-15T04:18:49.109Z,7.18
2022-11-15T04:19:49.102Z,7.18
2022-11-15T04:20:49.093Z,7.25
2022-11-15T04:21:49.080Z,7.20
2022-11-15T04:22:49.077Z,7.21
2022-11-15T04:23:49.060Z,7.25
2022-11-15T04:24:49.061Z,7.21
2022-11-15T04:25:49.061Z,7.21
2022-11-15T04:26:49.046Z,7.20
2022-11-15T04:27:49.052Z,7.18
2022-11-15T04:28:49.043Z,7.23
2022-11-15T04:29:49.031Z,7.17
2022-11-15T04:30:49.023Z,7.14
2022-11-15T04:31:49.005Z,7.10
2022-11-15T04:32:49.009Z,7.06
2022-11-15T04:33:48.992Z,7.11
2022-11-15T04:34:48.994Z,7.13
2022-11-15T04:35:48.985Z,7.13
2022-11-15T04:36:48.975Z,7.18
2022-11-15T04:37:49.529Z,7.17
2022-11-15T04:38:48.962Z,7.17
2022-11-15T04:39:49.017Z,7.10
2022-11-15T04:40:48.962Z,7.13
2022-11-15T04:41:48.936Z,7.15
2022-11-15T04:42:48.946Z,7.20
2022-11-15T04:43:48.937Z,7.21
2022-11-15T04:44:48.916Z,7.18
2022-11-15T04:45:48.961Z,7.21
2022-11-15T04:46:48.903Z,7.25
2022-11-15T04:47:48.910Z,7.21
2022-11-15T04:48:48.891Z,7.20
2022-11-15T04:49:48.886Z,7.25
2022-11-15T04:50:48.886Z,7.32
2022-11-15T04:51:48.882Z,7.28
2022-11-15T04:52:48.867Z,7.21
2022-11-15T04:53:48.847Z,7.28
2022-11-15T04:54:48.844Z,7.31
2022-11-15T04:55:48.846Z,7.32
2022-11-15T04:56:48.834Z,7.23
2022-11-15T04:57:48.827Z,7.32
2022-11-15T04:58:48.808Z,7.33
2022-11-15T04:59:48.804Z,7.32
2022-11-15T05:00:48.863Z,7.32
2022-11-15T05:01:48.809Z,7.25
2022-11-15T05:02:48.800Z,7.28
2022-11-15T05:03:48.791Z,7.29
2022-11-15T05:04:48.782Z,7.36
2022-11-15T05:05:48.767Z,7.32
2022-11-15T05:06:48.815Z,7.32
2022-11-15T05:07:48.752Z,7.17
2022-11-15T05:08:48.747Z,7.21
2022-11-15T05:09:48.755Z,7.24
2022-11-15T05:10:48.741Z,7.20
2022-11-15T05:11:48.725Z,7.20
2022-11-15T05:12:48.736Z,7.20
2022-11-15T05:13:48.725Z,7.24
2022-11-15T05:14:48.716Z,7.20
2022-11-15T05:15:48.695Z,7.20
2022-11-15T05:16:48.691Z,7.20
2022-11-15T05:17:48.686Z,7.18
2022-11-15T05:18:48.724Z,7.15
2022-11-15T05:19:48.679Z,7.15
2022-11-15T05:20:48.658Z,7.21
2022-11-15T05:21:48.665Z,7.29
2022-11-15T05:22:48.644Z,7.31
2022-11-15T05:23:48.637Z,7.17
2022-11-15T05:24:48.628Z,7.20
2022-11-15T05:25:48.629Z,7.21
2022-11-15T05:26:48.625Z,7.23
2022-11-15T05:27:48.608Z,7.24
2022-11-15T05:28:48.616Z,7.15
2022-11-15T05:29:48.603Z,7.25
2022-11-15T05:30:48.600Z,7.14
2022-11-15T05:31:48.583Z,7.28
2022-11-15T05:32:48.578Z,7.23
2022-11-15T05:33:48.576Z,7.25
2022-11-15T05:34:48.599Z,7.17
2022-11-15T05:35:48.574Z,7.20
2022-11-15T05:36:48.547Z,7.13
2022-11-15T05:37:48.555Z,7.18
2022-11-15T05:38:48.536Z,7.17
2022-11-15T05:39:48.540Z,7.25
2022-11-15T05:40:48.535Z,7.32
2022-11-15T05:41:48.526Z,7.18
2022-11-15T05:42:48.538Z,7.18
2022-11-15T05:43:48.501Z,7.24
2022-11-15T05:44:48.492Z,7.20
2022-11-15T05:45:48.491Z,7.24
2022-11-15T05:46:48.480Z,7.29
2022-11-15T05:47:48.479Z,7.18
2022-11-15T05:48:48.487Z,7.35
2022-11-15T05:49:48.464Z,7.36
2022-11-15T05:50:48.520Z,7.24
2022-11-15T05:51:48.445Z,7.17
2022-11-15T05:52:48.438Z,7.33
2022-11-15T05:53:48.431Z,7.33
2022-11-15T05:54:48.433Z,7.31
2022-11-15T05:55:48.423Z,7.32
2022-11-15T05:56:48.435Z,7.29
2022-11-15T05:57:48.415Z,7.33
2022-11-15T05:58:48.415Z,7.29
2022-11-15T05:59:48.392Z,7.21
2022-11-15T06:00:48.421Z,7.32
2022-11-15T06:01:48.405Z,7.28
2022-11-15T06:02:48.378Z,7.33
2022-11-15T06:03:48.368Z,7.36
2022-11-15T06:04:48.366Z,7.20
2022-11-15T06:05:48.363Z,7.28
2022-11-15T06:06:48.366Z,7.31
2022-11-15T06:07:48.347Z,7.21
2022-11-15T06:08:48.341Z,7.36
2022-11-15T06:09:48.322Z,7.18
2022-11-15T06:10:48.321Z,7.29
2022-11-15T06:11:48.331Z,7.20
2022-11-15T06:12:48.289Z,7.31
2022-11-15T06:13:48.291Z,7.25
2022-11-15T06:14:48.285Z,7.18
2022-11-15T06:15:48.278Z,7.25
2022-11-15T06:16:48.274Z,7.29
2022-11-15T06:17:48.283Z,7.24
2022-11-15T06:18:48.251Z,7.23
2022-11-15T06:19:48.308Z,7.23
2022-11-15T06:20:48.240Z,7.17
2022-11-15T06:21:48.233Z,7.29
2022-11-15T06:22:48.245Z,7.25
2022-11-15T06:23:48.228Z,7.18
2022-11-15T06:24:48.207Z,7.20
2022-11-15T06:25:48.232Z,7.20
2022-11-15T06:26:48.223Z,7.15
2022-11-15T06:27:48.218Z,7.25
2022-11-15T06:28:48.186Z,7.21
2022-11-15T06:29:48.186Z,7.21
2022-11-15T06:30:53.036Z,7.25
2022-11-15T06:31:48.260Z,7.25
2022-11-15T06:32:48.177Z,7.23
2022-11-15T06:33:48.187Z,7.28
2022-11-15T06:34:48.143Z,7.17
2022-11-15T06:35:48.141Z,7.18
2022-11-15T06:36:48.133Z,7.21
2022-11-15T06:37:48.127Z,7.20
2022-11-15T06:38:48.140Z,7.20
2022-11-15T06:39:48.115Z,7.24
2022-11-15T06:40:48.157Z,7.20
2022-11-15T06:41:48.105Z,7.14
2022-11-15T06:42:48.102Z,7.17
2022-11-15T06:43:48.078Z,7.14
2022-11-15T06:44:48.172Z,7.14
2022-11-15T06:45:48.066Z,7.17
2022-11-15T06:46:48.083Z,7.14
2022-11-15T06:47:48.081Z,7.23
2022-11-15T06:48:48.043Z,7.15
2022-11-15T06:49:48.039Z,7.17
2022-11-15T06:50:48.075Z,7.17
2022-11-15T06:51:48.024Z,7.17
2022-11-15T06:52:48.023Z,7.14
2022-11-15T06:53:48.013Z,7.18
2022-11-15T06:54:48.015Z,7.18
2022-11-15T06:55:52.050Z,7.21
2022-11-15T06:56:47.983Z,7.25
2022-11-15T06:57:47.982Z,7.21
2022-11-15T06:58:47.967Z,7.20
2022-11-15T06:59:47.964Z,7.25
2022-11-15T07:00:47.993Z,7.18
2022-11-15T07:01:47.983Z,7.18
2022-11-15T07:02:47.955Z,7.21
2022-11-15T07:03:47.944Z,7.15
2022-11-15T07:04:47.940Z,7.20
2022-11-15T07:05:47.943Z,7.21
2022-11-15T07:06:47.965Z,7.21
2022-11-15T07:07:47.912Z,7.25
2022-11-15T07:08:47.900Z,7.17
2022-11-15T07:09:47.904Z,7.23
2022-11-15T07:10:47.896Z,7.17
2022-11-15T07:11:47.880Z,7.23
2022-11-15T07:12:47.871Z,7.18
2022-11-15T07:13:47.878Z,7.21
2022-11-15T07:14:47.875Z,7.28
2022-11-15T07:15:47.872Z,7.17
2022-11-15T07:16:47.848Z,7.21
2022-11-15T07:17:47.837Z,7.20
2022-11-15T07:18:47.826Z,7.20
2022-11-15T07:19:47.823Z,7.20
2022-11-15T07:20:47.831Z,7.23
2022-11-15T07:21:47.834Z,7.25
2022-11-15T07:22:47.818Z,7.32
2022-11-15T07:23:47.811Z,7.32
2022-11-15T07:24:47.801Z,7.38
2022-11-15T07:25:47.798Z,7.29
2022-11-15T07:26:47.853Z,7.32
2022-11-15T07:27:47.780Z,7.33
2022-11-15T07:28:47.778Z,7.42
2022-11-15T07:29:47.762Z,7.40
2022-11-15T07:30:47.758Z,7.39
2022-11-15T07:31:47.758Z,7.39
2022-11-15T07:32:47.745Z,7.33
2022-11-15T07:33:47.729Z,7.33
2022-11-15T07:34:47.725Z,7.32
2022-11-15T07:35:47.727Z,7.38
2022-11-15T07:36:47.721Z,7.33
2022-11-15T07:37:47.707Z,7.40
2022-11-15T07:38:47.691Z,7.39
2022-11-15T07:39:47.707Z,7.43
2022-11-15T07:40:47.686Z,7.43
2022-11-15T07:41:47.678Z,7.43
2022-11-15T07:42:47.745Z,7.42
2022-11-15T07:43:47.668Z,7.54
2022-11-15T07:44:47.675Z,7.57
2022-11-15T07:45:47.675Z,7.50
2022-11-15T07:46:47.647Z,7.66
2022-11-15T07:47:47.644Z,7.58
2022-11-15T07:48:47.626Z,7.67
2022-11-15T07:49:47.623Z,7.66
2022-11-15T07:50:47.628Z,7.72
2022-11-15T07:51:47.617Z,7.73
2022-11-15T07:52:47.624Z,7.63
2022-11-15T07:53:47.623Z,7.63
2022-11-15T07:54:47.590Z,7.61
2022-11-15T07:55:47.595Z,7.72
2022-11-15T07:56:47.572Z,7.75
2022-11-15T07:57:47.592Z,7.75
2022-11-15T07:58:47.588Z,7.73
2022-11-15T07:59:47.591Z,7.75
2022-11-15T08:00:47.559Z,7.72
2022-11-15T08:01:47.666Z,7.72
2022-11-15T08:02:47.676Z,7.79
2022-11-15T08:03:47.536Z,7.85
2022-11-15T08:04:47.539Z,7.83
2022-11-15T08:05:47.525Z,7.79
2022-11-15T08:06:47.567Z,7.88
2022-11-15T08:07:47.533Z,7.88
2022-11-15T08:08:47.514Z,7.83
2022-11-15T08:09:47.493Z,7.98
2022-11-15T08:10:47.491Z,7.93
2022-11-15T08:11:47.492Z,8.03
2022-11-15T08:12:47.515Z,8.00
2022-11-15T08:13:47.469Z,8.01
2022-11-15T08:14:47.509Z,8.20
2022-11-15T08:15:47.457Z,8.27
2022-11-15T08:16:47.453Z,8.36
2022-11-15T08:17:47.456Z,8.45
2022-11-15T08:18:47.450Z,8.53
2022-11-15T08:19:47.436Z,8.71
2022-11-15T08:20:47.427Z,8.79
2022-11-15T08:21:47.435Z,8.84
2022-11-15T08:22:47.428Z,8.91
2022-11-15T08:23:47.418Z,8.92
2022-11-15T08:24:47.412Z,8.95
2022-11-15T08:25:47.398Z,9.11
2022-11-15T08:26:47.477Z,9.25
2022-11-15T08:27:47.392Z,9.23
2022-11-15T08:28:47.389Z,9.32
2022-11-15T08:29:47.378Z,9.37
2022-11-15T08:30:47.390Z,9.34
2022-11-15T08:31:47.389Z,9.50
2022-11-15T08:32:47.369Z,9.50
2022-11-15T08:33:47.359Z,9.58
2022-11-15T08:34:47.355Z,9.77
2022-11-15T08:35:47.365Z,9.76
2022-11-15T08:36:47.353Z,9.72
2022-11-15T08:37:47.369Z,9.92
2022-11-15T08:38:47.348Z,9.97
2022-11-15T08:39:47.349Z,10.10
2022-11-15T08:40:47.346Z,10.16
2022-11-15T08:41:47.337Z,10.23
2022-11-15T08:42:47.342Z,10.31
2022-11-15T08:43:47.327Z,10.26
2022-11-15T08:44:47.318Z,10.35
2022-11-15T08:45:47.308Z,10.38
2022-11-15T08:46:47.319Z,10.54
2022-11-15T08:47:52.762Z,10.49
2022-11-15T08:48:47.312Z,10.59
2022-11-15T08:49:47.295Z,10.69
2022-11-15T08:50:47.293Z,10.75
2022-11-15T08:51:47.302Z,10.75
2022-11-15T08:52:47.304Z,10.76
2022-11-15T08:53:47.304Z,10.89
2022-11-15T08:54:47.290Z,10.92
2022-11-15T08:55:47.276Z,11.02
2022-11-15T08:56:47.275Z,11.22
2022-11-15T08:57:47.286Z,11.41
2022-11-15T08:58:47.277Z,11.57
2022-11-15T08:59:47.275Z,11.73
2022-11-15T09:00:47.287Z,11.99
2022-11-15T09:01:47.310Z,12.24
2022-11-15T09:02:47.284Z,12.49
2022-11-15T09:03:47.263Z,12.53
2022-11-15T09:04:47.263Z,12.53
2022-11-15T09:05:47.259Z,12.55
2022-11-15T09:06:47.314Z,12.53
2022-11-15T09:07:47.253Z,12.49
2022-11-15T09:08:48.379Z,12.49
2022-11-15T09:09:47.255Z,12.39
2022-11-15T09:10:47.269Z,12.31
2022-11-15T09:11:47.753Z,12.24
2022-11-15T09:12:47.288Z,12.15
2022-11-15T09:13:47.264Z,12.10
2022-11-15T09:14:47.248Z,11.91
2022-11-15T09:15:47.281Z,11.88
2022-11-15T09:16:47.277Z,11.88
2022-11-15T09:17:47.252Z,11.83
2022-11-15T09:18:47.257Z,11.81
2022-11-15T09:19:47.244Z,11.78
2022-11-15T09:20:47.239Z,11.63
2022-11-15T09:21:47.246Z,11.65
2022-11-15T09:22:47.242Z,11.55
2022-11-15T09:23:47.243Z,11.59
2022-11-15T09:24:47.231Z,11.63
2022-11-15T09:25:47.243Z,11.57
2022-11-15T09:26:47.241Z,11.60
2022-11-15T09:27:47.224Z,11.55
2022-11-15T09:28:47.238Z,11.36
2022-11-15T09:29:47.273Z,11.41
2022-11-15T09:30:47.213Z,11.32
2022-11-15T09:31:47.211Z,11.40
2022-11-15T09:32:47.210Z,11.35
2022-11-15T09:33:47.212Z,11.32
2022-11-15T09:34:47.220Z,11.41
2022-11-15T09:35:47.218Z,11.36
2022-11-15T09:36:47.207Z,11.35
2022-11-15T09:37:49.116Z,11.33
2022-11-15T09:38:47.203Z,11.36
2022-11-15T09:39:47.212Z,11.51
2022-11-15T09:40:47.196Z,11.47
2022-11-15T09:41:47.207Z,11.43
2022-11-15T09:42:47.194Z,11.59
2022-11-15T09:43:47.193Z,11.63
2022-11-15T09:44:47.192Z,11.54
2022-11-15T09:45:47.191Z,11.62
2022-11-15T09:46:47.446Z,11.55
2022-11-15T09:47:47.186Z,11.59
2022-11-15T09:48:47.188Z,11.63
2022-11-15T09:49:47.207Z,11.59
2022-11-15T09:50:47.191Z,11.55
2022-11-15T09:51:47.182Z,11.51
2022-11-15T09:52:47.163Z,11.62
2022-11-15T09:54:30.443Z,11.59
2022-11-15T09:54:55.722Z,11.59
2022-11-15T09:55:47.183Z,11.60
2022-11-15T09:56:47.167Z,11.59
2022-11-15T09:57:47.167Z,11.63
2022-11-15T09:58:47.149Z,11.60
2022-11-15T09:59:47.170Z,11.62
2022-11-15T10:00:48.353Z,11.63
2022-11-15T10:01:47.207Z,11.52
2022-11-15T10:02:47.134Z,11.43
2022-11-15T10:03:47.135Z,11.35
2022-11-15T10:04:47.127Z,11.37
2022-11-15T10:05:47.127Z,11.41
2022-11-15T10:06:47.196Z,11.40
2022-11-15T10:07:47.127Z,11.35
2022-11-15T10:08:47.150Z,11.32
2022-11-15T10:09:47.118Z,11.23
2022-11-15T10:10:47.127Z,11.15
2022-11-15T10:11:47.094Z,11.25
2022-11-15T10:12:47.123Z,11.23
2022-11-15T10:13:47.092Z,11.29
2022-11-15T10:14:51.606Z,11.27
2022-11-15T10:15:47.106Z,11.23
2022-11-15T10:16:47.080Z,11.23
2022-11-15T10:17:47.085Z,11.29
2022-11-15T10:18:47.079Z,11.22
2022-11-15T10:19:47.096Z,11.18
2022-11-15T10:20:47.094Z,11.17
2022-11-15T10:21:47.068Z,11.17
2022-11-15T10:22:47.067Z,11.26
2022-11-15T10:23:47.064Z,11.19
2022-11-15T10:24:47.076Z,11.19
2022-11-15T10:25:47.058Z,11.18
2022-11-15T10:26:47.052Z,11.22
2022-11-15T10:27:47.073Z,11.17
2022-11-15T10:28:47.045Z,11.14
2022-11-15T10:29:47.062Z,11.19
2022-11-15T10:30:47.033Z,11.19
2022-11-15T10:31:47.076Z,11.27
2022-11-15T10:32:47.020Z,11.27
2022-11-15T10:33:47.022Z,11.25
2022-11-15T10:34:47.015Z,11.25
2022-11-15T10:35:47.026Z,11.29
2022-11-15T10:36:50.291Z,11.26
2022-11-15T10:37:47.018Z,11.26
2022-11-15T10:38:47.017Z,11.22
2022-11-15T10:39:47.020Z,11.25
2022-11-15T10:40:46.986Z,11.29
2022-11-15T10:41:47.001Z,11.26
2022-11-15T10:42:46.982Z,11.33
2022-11-15T10:43:46.986Z,11.33
2022-11-15T10:44:46.983Z,11.36
2022-11-15T10:45:46.982Z,11.36
2022-11-15T10:46:47.868Z,11.36
2022-11-15T10:47:46.974Z,11.41
2022-11-15T10:48:46.971Z,11.32
2022-11-15T10:49:46.946Z,11.37
2022-11-15T10:50:46.942Z,11.36
2022-11-15T10:51:46.969Z,11.43
2022-11-15T10:52:46.960Z,11.47
2022-11-15T10:53:46.933Z,11.40
2022-11-15T10:54:46.946Z,11.41
2022-11-15T10:55:46.927Z,11.32
2022-11-15T10:56:46.928Z,11.45
2022-11-15T10:57:46.917Z,11.43
2022-11-15T10:58:46.912Z,11.36
2022-11-15T10:59:46.923Z,11.47
2022-11-15T11:00:46.914Z,11.48
2022-11-15T11:01:47.002Z,11.52
2022-11-15T11:02:46.911Z,11.48
2022-11-15T11:03:46.896Z,11.57
2022-11-15T11:04:46.893Z,11.47
2022-11-15T11:05:46.892Z,11.57
2022-11-15T11:06:46.985Z,11.52
2022-11-15T11:07:46.899Z,11.59
2022-11-15T11:08:46.919Z,11.57
2022-11-15T11:09:46.870Z,11.63
2022-11-15T11:10:51.888Z,11.65
2022-11-15T11:11:46.875Z,11.55
2022-11-15T11:12:46.874Z,11.62
2022-11-15T11:13:46.898Z,11.60
2022-11-15T11:14:46.879Z,11.59
2022-11-15T11:15:46.859Z,11.63
2022-11-15T11:16:46.846Z,11.72
2022-11-15T11:17:46.833Z,11.68
2022-11-15T11:18:46.828Z,11.70
2022-11-15T11:19:46.834Z,11.65
2022-11-15T11:20:46.824Z,11.69
2022-11-15T11:21:46.847Z,11.62
2022-11-15T11:22:46.825Z,11.62
2022-11-15T11:23:46.811Z,11.60
2022-11-15T11:24:46.809Z,11.73
2022-11-15T11:25:46.800Z,11.73
2022-11-15T11:26:46.801Z,11.72
2022-11-15T11:27:46.816Z,11.72
2022-11-15T11:28:46.796Z,11.75
2022-11-15T11:29:46.778Z,11.81
2022-11-15T11:30:46.786Z,11.81
2022-11-15T11:31:46.796Z,11.83
2022-11-15T11:32:48.487Z,11.86
2022-11-15T11:33:46.780Z,11.91
2022-11-15T11:34:46.774Z,11.80
2022-11-15T11:35:46.808Z,11.91
2022-11-15T11:36:46.780Z,11.91
2022-11-15T11:37:46.749Z,11.97
2022-11-15T11:38:46.751Z,11.99
2022-11-15T11:39:46.744Z,12.00
2022-11-15T11:40:46.761Z,11.95
2022-11-15T11:41:46.757Z,11.90
2022-11-15T11:42:46.742Z,11.95
2022-11-15T11:43:46.751Z,11.94
2022-11-15T11:44:46.734Z,11.95
2022-11-15T11:45:47.538Z,11.99
2022-11-15T11:46:46.732Z,11.95
2022-11-15T11:47:46.713Z,12.15
2022-11-15T11:48:46.719Z,12.02
2022-11-15T11:49:46.726Z,12.15
2022-11-15T11:50:46.714Z,12.12
2022-11-15T11:51:46.832Z,12.12
2022-11-15T11:52:46.720Z,12.13
2022-11-15T11:53:46.753Z,12.15
2022-11-15T11:54:46.688Z,12.17
2022-11-15T11:55:46.693Z,12.20
2022-11-15T11:56:46.703Z,12.12
2022-11-15T11:57:46.679Z,12.21
2022-11-15T11:58:46.690Z,12.12
2022-11-15T11:59:46.687Z,12.17
2022-11-15T12:00:46.684Z,12.21
2022-11-15T12:01:46.885Z,12.22
2022-11-15T12:02:46.881Z,12.35
2022-11-15T12:03:46.654Z,12.36
2022-11-15T12:04:46.682Z,12.25
2022-11-15T12:05:46.654Z,12.32
2022-11-15T12:06:46.698Z,12.37
2022-11-15T12:07:46.643Z,12.31
2022-11-15T12:08:46.644Z,12.36
2022-11-15T12:09:46.655Z,12.29
2022-11-15T12:10:46.633Z,12.31
2022-11-15T12:11:46.644Z,12.28
2022-11-15T12:12:46.628Z,12.32
2022-11-15T12:13:46.657Z,12.40
2022-11-15T12:14:46.617Z,12.39
2022-11-15T12:15:46.619Z,12.36
2022-11-15T12:16:46.616Z,12.37
2022-11-15T12:17:46.605Z,12.32
2022-11-15T12:18:46.602Z,12.39
2022-11-15T12:19:46.602Z,12.40
2022-11-15T12:20:46.614Z,12.35
2022-11-15T12:21:46.620Z,12.35
2022-11-15T12:22:46.595Z,12.40
2022-11-15T12:23:46.624Z,12.39
2022-11-15T12:24:46.578Z,12.39
2022-11-15T12:25:46.579Z,12.46
2022-11-15T12:26:46.581Z,12.43
2022-11-15T12:27:46.569Z,12.42
2022-11-15T12:29:05.788Z,12.42
2022-11-15T12:29:46.590Z,12.50
2022-11-15T12:30:46.582Z,12.45
2022-11-15T12:31:46.564Z,12.40
2022-11-15T12:32:46.589Z,12.46
2022-11-15T12:33:46.550Z,12.46
2022-11-15T12:34:46.564Z,12.43
2022-11-15T12:35:46.548Z,12.46
2022-11-15T12:36:46.543Z,12.49
2022-11-15T12:37:46.539Z,12.50
2022-11-15T12:38:46.545Z,12.49
2022-11-15T12:39:46.537Z,12.46
2022-11-15T12:40:46.532Z,12.45
2022-11-15T12:41:46.560Z,12.50
2022-11-15T12:42:46.557Z,12.49
2022-11-15T12:43:46.530Z,12.53
2022-11-15T12:44:46.515Z,12.49
2022-11-15T12:45:46.517Z,12.50
2022-11-15T12:46:46.517Z,12.55
2022-11-15T12:47:46.512Z,12.49
2022-11-15T12:48:46.507Z,12.57
2022-11-15T12:49:46.532Z,12.57
2022-11-15T12:50:46.502Z,12.64
2022-11-15T12:51:46.536Z,12.58
2022-11-15T12:52:46.518Z,12.62
2022-11-15T12:53:46.522Z,12.53
2022-11-15T12:54:46.476Z,12.55
2022-11-15T12:55:46.513Z,12.61
2022-11-15T12:56:46.476Z,12.62
2022-11-15T12:57:46.469Z,12.61
2022-11-15T12:58:46.471Z,12.65
2022-11-15T12:59:46.471Z,12.65
2022-11-15T13:00:46.473Z,12.65
2022-11-15T13:01:46.476Z,12.64
2022-11-15T13:02:46.485Z,12.62
2022-11-15T13:03:46.443Z,12.61
2022-11-15T13:04:46.449Z,12.62
2022-11-15T13:05:46.443Z,12.57
2022-11-15T13:06:46.547Z,12.60
2022-11-15T13:07:46.450Z,12.57
2022-11-15T13:08:46.442Z,12.57
2022-11-15T13:09:46.447Z,12.62